Time;durP1;ratioP1;P1;durP2;ratioP2;P2;SDS_P1;SDS_P2;PMS_P1;PMS_P2;Temp;Humidity;BMP_temperature;BMP_pressure;BME280_temperature;BME280_humidity;BME280_pressure;Samples;Min_cycle;Max_cycle;Signal;HPM_P1;HPM_P2
2022/11/17 00:01:48;;;;;;;12.73;6.30;;;8.00;99.90;;;;;;5058488;28;20063;-68
2022/11/17 00:04:13;;;;;;;9.00;5.10;;;8.00;99.90;;;;;;5076383;28;20037;-68
2022/11/17 00:06:39;;;;;;;9.70;5.47;;;8.10;99.90;;;;;;5058433;28;20094;-68
2022/11/17 00:09:05;;;;;;;12.75;6.68;;;8.30;99.90;;;;;;5076612;28;20120;-68
2022/11/17 00:14:31;;;;;;;10.48;5.90;;;8.10;99.90;;;;;;5042137;28;20044;-69
2022/11/17 00:14:31;;;;;;;11.32;6.80;;;8.10;99.90;;;;;;5076564;28;20044;-68
2022/11/17 00:16:57;;;;;;;9.55;6.50;;;8.10;99.90;;;;;;5076496;28;20075;-68
2022/11/17 00:22:07;;;;;;;11.05;6.35;;;8.00;99.90;;;;;;5076302;28;20456;-68
2022/11/17 00:24:33;;;;;;;9.93;6.45;;;8.00;99.90;;;;;;5076140;28;20045;-68
2022/11/17 00:27:01;;;;;;;8.95;5.93;;;8.10;99.90;;;;;;5076278;28;20041;-68
2022/11/17 00:29:30;;;;;;;12.90;6.28;;;8.30;99.90;;;;;;5058543;28;20104;-69
2022/11/17 00:34:40;;;;;;;7.95;6.00;;;8.20;99.90;;;;;;5074826;28;20193;-68
2022/11/17 00:37:08;;;;;;;10.40;6.68;;;8.10;99.90;;;;;;5075783;28;20197;-68
2022/11/17 00:39:33;;;;;;;8.05;5.65;;;8.20;99.90;;;;;;5076142;28;20040;-68
2022/11/17 00:41:59;;;;;;;10.85;6.50;;;8.20;99.90;;;;;;5075912;28;20090;-68
2022/11/17 00:44:25;;;;;;;7.88;5.55;;;8.00;99.90;;;;;;5076000;28;20502;-68
2022/11/17 00:46:51;;;;;;;10.05;5.93;;;8.00;99.90;;;;;;5075628;28;20036;-68
2022/11/17 00:49:23;;;;;;;9.77;5.53;;;8.00;99.90;;;;;;5041240;28;20066;-69
2022/11/17 00:51:50;;;;;;;8.05;5.10;;;8.10;99.90;;;;;;5075894;28;20060;-68
2022/11/17 00:54:16;;;;;;;11.63;5.07;;;8.10;99.90;;;;;;5075757;28;20044;-68
2022/11/17 00:56:41;;;;;;;8.23;5.45;;;8.10;99.90;;;;;;5075423;28;20085;-68
2022/11/17 00:59:07;;;;;;;7.60;5.15;;;8.10;99.90;;;;;;5040971;28;20040;-68
2022/11/17 01:01:33;;;;;;;8.35;4.65;;;8.30;99.90;;;;;;5075637;28;20119;-69
2022/11/17 01:04:02;;;;;;;11.52;6.43;;;8.10;99.90;;;;;;5075623;28;20036;-69
2022/11/17 01:06:48;;;;;;;8.90;5.30;;;8.20;99.90;;;;;;5057276;28;20037;-69
2022/11/17 01:09:16;;;;;;;9.73;5.97;;;8.10;99.90;;;;;;5057306;28;20045;-68
2022/11/17 01:11:43;;;;;;;9.38;5.43;;;8.00;99.90;;;;;;5075454;28;20099;-68
2022/11/17 01:14:17;;;;;;;7.30;5.20;;;8.20;99.90;;;;;;5075421;28;20067;-68
2022/11/17 01:16:43;;;;;;;7.65;4.97;;;8.50;99.90;;;;;;5057195;28;20048;-68
2022/11/17 01:19:11;;;;;;;11.35;5.35;;;8.00;99.90;;;;;;5074989;28;20049;-68
2022/11/17 01:21:37;;;;;;;8.43;5.47;;;8.90;99.90;;;;;;5074835;28;20051;-68
2022/11/17 01:24:02;;;;;;;12.02;5.63;;;8.80;99.90;;;;;;5056996;28;20045;-68
2022/11/17 01:26:34;;;;;;;7.65;4.88;;;8.00;99.90;;;;;;5056976;28;20399;-69
2022/11/17 01:29:01;;;;;;;6.70;5.18;;;8.00;99.90;;;;;;5075109;28;20514;-68
2022/11/17 01:31:32;;;;;;;8.60;5.40;;;8.10;99.90;;;;;;5074797;28;20047;-68
2022/11/17 01:33:58;;;;;;;8.93;4.65;;;8.10;99.90;;;;;;5056738;28;20045;-68
2022/11/17 01:36:25;;;;;;;8.57;4.90;;;8.30;99.90;;;;;;5056697;28;20055;-68
2022/11/17 01:38:51;;;;;;;8.07;4.97;;;8.10;99.90;;;;;;5074913;28;20049;-68
2022/11/17 01:41:22;;;;;;;8.90;5.38;;;8.00;99.90;;;;;;5074398;28;20422;-68
2022/11/17 01:43:49;;;;;;;12.82;5.95;;;8.10;99.90;;;;;;5056415;28;20037;-68
2022/11/17 01:46:37;;;;;;;6.97;5.00;;;8.20;99.90;;;;;;5056370;28;20078;-68
2022/11/17 01:49:17;;;;;;;8.93;5.22;;;8.10;99.90;;;;;;5074434;28;20086;-68
2022/11/17 01:51:47;;;;;;;7.72;5.43;;;8.80;99.90;;;;;;5056482;28;20445;-69
2022/11/17 01:54:16;;;;;;;8.02;5.25;;;8.10;99.90;;;;;;5074332;28;20044;-68
2022/11/17 01:56:45;;;;;;;7.47;5.03;;;8.00;99.90;;;;;;5074505;28;20047;-68
2022/11/17 01:59:22;;;;;;;7.75;4.55;;;8.10;99.90;;;;;;5056306;28;20080;-68
2022/11/17 02:01:55;;;;;;;8.35;4.78;;;8.20;99.90;;;;;;5074347;28;20044;-68
2022/11/17 02:04:34;;;;;;;9.35;5.30;;;8.10;99.90;;;;;;5074127;28;20084;-68
2022/11/17 02:07:12;;;;;;;9.93;6.18;;;8.00;99.90;;;;;;5056245;28;20086;-68
2022/11/17 02:09:39;;;;;;;9.15;5.30;;;8.00;99.90;;;;;;5074028;28;20044;-68
2022/11/17 02:12:08;;;;;;;9.23;5.10;;;8.10;99.90;;;;;;5055961;28;20044;-68
2022/11/17 02:14:35;;;;;;;7.38;4.97;;;8.00;99.90;;;;;;5074211;28;20040;-68
2022/11/17 02:17:05;;;;;;;8.20;4.85;;;8.20;99.90;;;;;;5074187;28;20040;-68
2022/11/17 02:19:41;;;;;;;8.68;4.60;;;8.60;99.90;;;;;;5073775;28;20052;-68
2022/11/17 02:23:04;;;;;;;7.97;4.90;;;8.10;99.90;;;;;;5074055;28;20052;-68
2022/11/17 02:25:58;;;;;;;8.88;5.13;;;8.00;99.90;;;;;;4992462;28;20038;-68
2022/11/17 02:28:36;;;;;;;8.10;4.78;;;8.00;99.90;;;;;;4992480;28;20058;-69
2022/11/17 02:31:40;;;;;;;8.65;5.45;;;7.90;99.90;;;;;;5046031;28;20484;-69
2022/11/17 02:34:09;;;;;;;6.40;4.80;;;;;;;;;;4992354;28;20498;-69
2022/11/17 02:36:47;;;;;;;8.85;5.50;;;7.90;99.90;;;;;;4992329;28;20046;-68
2022/11/17 02:39:34;;;;;;;9.40;5.28;;;7.90;99.90;;;;;;5038498;28;20053;-68
2022/11/17 02:45:40;;;;;;;6.50;5.00;;;7.80;99.90;;;;;;5073397;28;20051;-68
2022/11/17 02:48:14;;;;;;;8.82;4.93;;;7.80;99.90;;;;;;5055862;28;20365;-69
2022/11/17 02:50:43;;;;;;;6.75;4.82;;;7.80;99.90;;;;;;5073750;28;20067;-69
2022/11/17 02:53:09;;;;;;;7.03;5.40;;;7.80;99.90;;;;;;5073679;28;20117;-69
2022/11/17 02:55:36;;;;;;;6.90;4.53;;;7.80;99.90;;;;;;5055362;28;20107;-69
2022/11/17 02:58:02;;;;;;;8.13;5.70;;;7.70;99.90;;;;;;5073253;28;20094;-69
2022/11/17 03:00:30;;;;;;;11.30;5.05;;;7.80;99.90;;;;;;5038710;28;20048;-69
2022/11/17 03:03:26;;;;;;;6.38;5.30;;;7.70;99.90;;;;;;5055359;28;20098;-69
2022/11/17 03:05:55;;;;;;;13.05;6.28;;;7.70;99.90;;;;;;5055362;28;20044;-69
2022/11/17 03:08:46;;;;;;;8.02;5.30;;;7.70;99.90;;;;;;5073578;28;20074;-69
2022/11/17 03:11:12;;;;;;;7.22;4.68;;;7.70;99.90;;;;;;5055269;28;20094;-70
2022/11/17 03:13:55;;;;;;;8.35;5.47;;;7.70;99.90;;;;;;5073389;28;20036;-70
2022/11/17 03:16:29;;;;;;;12.23;5.68;;;7.70;99.90;;;;;;5073448;28;20576;-70
2022/11/17 03:19:03;;;;;;;8.73;5.63;;;7.70;99.90;;;;;;5054998;28;20059;-70
2022/11/17 03:21:32;;;;;;;10.63;5.07;;;7.70;99.90;;;;;;5055328;28;20133;-70
2022/11/17 03:24:17;;;;;;;8.70;5.32;;;7.60;99.90;;;;;;5072985;28;20050;-70
2022/11/17 03:26:57;;;;;;;9.85;5.63;;;7.70;99.90;;;;;;5073320;28;20033;-70
2022/11/17 03:29:26;;;;;;;8.40;5.55;;;7.60;99.90;;;;;;5073155;28;20119;-70
2022/11/17 03:31:57;;;;;;;10.85;5.35;;;7.60;99.90;;;;;;5055034;28;20110;-70
2022/11/17 03:34:26;;;;;;;9.23;5.75;;;7.80;99.90;;;;;;5073029;28;20055;-70
2022/11/17 03:36:57;;;;;;;8.23;5.78;;;7.60;99.90;;;;;;5054996;28;20086;-70
2022/11/17 03:39:39;;;;;;;7.53;5.03;;;7.50;99.90;;;;;;5055078;28;20110;-70
2022/11/17 03:42:27;;;;;;;7.90;5.35;;;7.60;99.90;;;;;;5073022;28;20041;-71
2022/11/17 03:45:00;;;;;;;9.10;5.60;;;7.60;99.90;;;;;;5055225;28;20062;-70
2022/11/17 03:47:27;;;;;;;10.18;5.40;;;7.50;99.90;;;;;;5073086;28;20043;-69
2022/11/17 03:50:07;;;;;;;7.72;5.00;;;7.50;99.90;;;;;;5072776;28;20488;-69
2022/11/17 03:52:33;;;;;;;7.50;5.22;;;7.50;99.90;;;;;;5073082;28;20476;-69
2022/11/17 03:55:00;;;;;;;9.80;5.00;;;7.40;99.90;;;;;;5055107;28;20036;-70
2022/11/17 03:57:33;;;;;;;10.48;5.18;;;7.40;99.90;;;;;;5072943;28;20068;-70
2022/11/17 04:00:05;;;;;;;8.40;5.18;;;7.80;99.90;;;;;;5054826;28;20048;-69
2022/11/17 04:02:30;;;;;;;7.75;4.97;;;7.40;99.90;;;;;;5038146;28;20055;-70
2022/11/17 04:05:05;;;;;;;6.97;4.90;;;7.40;99.90;;;;;;5072935;28;20123;-70
2022/11/17 04:07:41;;;;;;;8.60;6.03;;;7.40;99.90;;;;;;5073486;28;20098;-70
2022/11/17 04:10:12;;;;;;;10.70;6.30;;;7.60;99.90;;;;;;5076669;28;20072;-70
2022/11/17 04:18:08;;;;;;;7.93;4.85;;;7.30;99.90;;;;;;5061233;28;20419;-70
2022/11/17 04:20:36;;;;;;;6.35;4.40;;;7.30;99.90;;;;;;5058274;28;20419;-70
2022/11/17 04:23:08;;;;;;;8.20;5.43;;;7.30;99.90;;;;;;5058083;28;20049;-70
2022/11/17 04:28:37;;;;;;;6.65;5.03;;;7.30;99.90;;;;;;5076282;28;19916;-70
2022/11/17 04:31:13;;;;;;;8.10;5.20;;;7.20;99.90;;;;;;5058375;28;20559;-70
2022/11/17 04:33:47;;;;;;;9.55;5.70;;;7.20;99.90;;;;;;5058126;28;20123;-70
2022/11/17 04:36:16;;;;;;;8.95;5.53;;;7.30;99.90;;;;;;5058017;28;20059;-71
2022/11/17 04:38:44;;;;;;;8.82;5.55;;;7.20;99.90;;;;;;5057967;28;20093;-70
2022/11/17 04:43:56;;;;;;;7.15;4.82;;;7.20;99.90;;;;;;5075737;28;20037;-70
2022/11/17 04:46:23;;;;;;;8.52;4.72;;;7.50;99.90;;;;;;5076069;28;20036;-70
2022/11/17 04:48:50;;;;;;;9.13;4.85;;;7.10;99.90;;;;;;5057694;28;20108;-70
2022/11/17 04:51:16;;;;;;;8.13;5.38;;;7.00;99.90;;;;;;5075846;28;20522;-69
2022/11/17 04:53:43;;;;;;;8.07;4.82;;;7.00;99.90;;;;;;5075849;28;20068;-69
2022/11/17 04:56:09;;;;;;;6.82;4.35;;;7.10;99.90;;;;;;5075499;28;20033;-69
2022/11/17 04:58:35;;;;;;;9.25;5.25;;;7.00;99.90;;;;;;5075766;28;20533;-69
2022/11/17 05:01:13;;;;;;;10.55;5.13;;;7.10;99.90;;;;;;5057460;28;20044;-69
2022/11/17 05:03:47;;;;;;;5.78;3.97;;;7.30;99.90;;;;;;5075619;28;20483;-69
2022/11/17 05:06:33;;;;;;;12.32;5.22;;;7.00;99.90;;;;;;5075434;28;20510;-69
2022/11/17 05:09:06;;;;;;;6.25;4.30;;;6.90;99.90;;;;;;5057350;28;20097;-69
2022/11/17 05:14:17;;;;;;;8.52;4.68;;;6.90;99.90;;;;;;5075411;28;20133;-69
2022/11/17 05:19:29;;;;;;;8.30;4.20;;;6.80;99.90;;;;;;5074196;28;20041;-68
2022/11/17 05:21:55;;;;;;;6.95;4.53;;;6.80;99.90;;;;;;5075196;28;20573;-68
2022/11/17 05:24:21;;;;;;;6.72;4.60;;;7.40;99.90;;;;;;5075000;28;20102;-68
2022/11/17 05:26:48;;;;;;;6.03;4.28;;;6.80;99.90;;;;;;5057333;28;20430;-68
2022/11/17 05:29:19;;;;;;;7.03;4.07;;;6.80;99.90;;;;;;5057279;28;20377;-68
2022/11/17 05:31:45;;;;;;;8.77;4.68;;;6.80;99.90;;;;;;5075124;28;20403;-69
2022/11/17 05:34:12;;;;;;;5.22;3.70;;;6.80;99.90;;;;;;5075097;28;20040;-69
2022/11/17 05:36:39;;;;;;;8.18;4.15;;;6.80;99.90;;;;;;5074690;28;20047;-68
2022/11/17 05:39:05;;;;;;;6.30;3.90;;;6.80;99.90;;;;;;5074573;28;20090;-69
2022/11/17 05:41:31;;;;;;;8.52;4.72;;;7.10;99.90;;;;;;5056589;28;20037;-68
2022/11/17 05:43:58;;;;;;;5.97;4.30;;;6.80;99.90;;;;;;5074887;28;20029;-69
2022/11/17 05:46:24;;;;;;;6.18;3.33;;;6.70;99.90;;;;;;5074552;28;20040;-68
2022/11/17 05:48:50;;;;;;;6.53;3.47;;;6.70;99.90;;;;;;5056563;28;20029;-68
2022/11/17 05:51:21;;;;;;;5.60;3.22;;;6.70;99.90;;;;;;5074723;28;20063;-68
2022/11/17 05:53:47;;;;;;;6.85;4.13;;;6.90;99.90;;;;;;5074611;28;20037;-68
2022/11/17 05:56:31;;;;;;;6.10;4.00;;;7.30;99.90;;;;;;5074228;28;20059;-69
2022/11/17 05:59:32;;;;;;;5.40;3.42;;;6.60;99.90;;;;;;5040112;28;20048;-69
2022/11/17 06:02:03;;;;;;;5.80;3.97;;;6.70;99.90;;;;;;5052401;28;20053;-69
2022/11/17 06:04:29;;;;;;;4.60;3.15;;;6.70;99.90;;;;;;5074581;28;20115;-69
2022/11/17 06:06:58;;;;;;;5.32;3.50;;;6.60;99.90;;;;;;5074177;28;20395;-68
2022/11/17 06:09:27;;;;;;;5.45;3.22;;;6.60;99.90;;;;;;5056452;28;20086;-68
2022/11/17 06:11:53;;;;;;;5.20;3.50;;;6.70;99.90;;;;;;5074257;28;20086;-68
2022/11/17 06:14:19;;;;;;;5.15;3.33;;;6.60;99.90;;;;;;5056125;28;20041;-69
2022/11/17 06:16:47;;;;;;;5.22;3.42;;;6.60;99.90;;;;;;5074207;28;20047;-69
2022/11/17 06:19:27;;;;;;;5.18;3.63;;;6.60;99.90;;;;;;5055768;28;20111;-69
2022/11/17 06:21:53;;;;;;;6.85;3.55;;;6.60;99.90;;;;;;5055839;28;20068;-68
2022/11/17 06:24:19;;;;;;;5.65;3.80;;;6.60;99.90;;;;;;5056117;28;20040;-68
2022/11/17 06:26:45;;;;;;;4.47;3.30;;;6.50;99.90;;;;;;5074034;28;20044;-68
2022/11/17 06:29:13;;;;;;;5.38;3.00;;;6.60;99.90;;;;;;5055864;28;20096;-68
2022/11/17 06:31:42;;;;;;;7.53;3.72;;;6.60;99.90;;;;;;5073875;28;20055;-68
2022/11/17 06:34:08;;;;;;;4.28;3.17;;;6.60;99.90;;;;;;5055806;28;20110;-69
2022/11/17 06:36:34;;;;;;;5.53;3.30;;;6.50;99.90;;;;;;5055745;28;20040;-68
2022/11/17 06:38:59;;;;;;;4.63;3.15;;;6.50;99.90;;;;;;5055697;28;20161;-68
2022/11/17 06:41:25;;;;;;;6.05;3.70;;;6.60;99.90;;;;;;5073432;28;20510;-69
2022/11/17 06:43:51;;;;;;;4.95;3.17;;;6.60;99.90;;;;;;5073769;28;20475;-67
2022/11/17 06:46:17;;;;;;;5.07;3.20;;;6.60;99.90;;;;;;5055565;28;20551;-67
2022/11/17 06:48:43;;;;;;;4.55;3.28;;;6.60;99.90;;;;;;5055509;28;20058;-69
2022/11/17 06:51:09;;;;;;;4.20;3.45;;;6.60;99.90;;;;;;5073730;28;20107;-67
2022/11/17 06:53:35;;;;;;;6.03;3.08;;;6.80;99.90;;;;;;5055662;28;20104;-67
2022/11/17 06:56:10;;;;;;;6.30;3.17;;;6.60;99.90;;;;;;5055604;28;20083;-70
2022/11/17 06:58:39;;;;;;;5.88;3.67;;;6.50;99.90;;;;;;5055412;28;20458;-69
2022/11/17 07:01:09;;;;;;;4.20;3.28;;;6.60;99.90;;;;;;5073260;28;20040;-68
2022/11/17 07:03:37;;;;;;;5.20;3.17;;;6.60;99.90;;;;;;5073167;28;20040;-68
2022/11/17 07:06:05;;;;;;;4.10;3.05;;;6.60;99.90;;;;;;5073468;28;20535;-68
2022/11/17 07:08:32;;;;;;;5.40;3.67;;;6.60;99.90;;;;;;5073480;28;20048;-68
2022/11/17 07:11:12;;;;;;;5.43;2.70;;;6.60;99.90;;;;;;5055495;28;20044;-68
2022/11/17 07:13:39;;;;;;;4.55;3.42;;;6.60;99.90;;;;;;5073149;28;20032;-68
2022/11/17 07:16:10;;;;;;;4.90;3.33;;;6.60;99.90;;;;;;5073067;28;20036;-70
2022/11/17 07:18:37;;;;;;;9.05;3.58;;;6.60;99.90;;;;;;5072963;28;20041;-70
2022/11/17 07:21:05;;;;;;;6.38;3.15;;;6.60;99.90;;;;;;5073411;28;20380;-71
2022/11/17 07:23:32;;;;;;;4.20;3.17;;;6.70;99.90;;;;;;5073308;28;20049;-69
2022/11/17 07:25:58;;;;;;;5.18;3.72;;;6.80;99.90;;;;;;5073330;28;20173;-68
2022/11/17 07:28:24;;;;;;;4.50;3.33;;;6.60;99.90;;;;;;5055050;28;20040;-70
2022/11/17 07:30:50;;;;;;;4.30;2.55;;;6.60;99.90;;;;;;5073292;28;20036;-69
2022/11/17 07:33:16;;;;;;;3.85;2.75;;;6.60;99.90;;;;;;5038388;28;20049;-70
2022/11/17 07:35:41;;;;;;;4.68;3.22;;;6.60;99.90;;;;;;5055006;28;20083;-70
2022/11/17 07:38:07;;;;;;;4.22;2.92;;;6.60;99.90;;;;;;5038358;28;20452;-69
2022/11/17 07:40:33;;;;;;;4.05;2.83;;;6.60;99.90;;;;;;5054976;28;20549;-72
2022/11/17 07:42:59;;;;;;;4.47;2.70;;;6.60;99.90;;;;;;5074765;28;20400;-69
2022/11/17 07:45:27;;;;;;;5.25;2.90;;;6.60;99.90;;;;;;5059013;28;20071;-68
2022/11/17 07:47:57;;;;;;;4.15;2.78;;;6.60;99.90;;;;;;5059109;28;20047;-70
2022/11/17 07:50:25;;;;;;;3.95;2.78;;;6.60;99.90;;;;;;5077008;28;20060;-69
2022/11/17 07:52:53;;;;;;;4.05;2.80;;;6.60;99.90;;;;;;5077017;28;20054;-69
2022/11/17 07:55:19;;;;;;;3.28;2.38;;;6.60;99.90;;;;;;5058741;28;20071;-69
2022/11/17 07:57:44;;;;;;;3.47;2.38;;;6.60;99.90;;;;;;5076802;28;20041;-69
2022/11/17 08:00:12;;;;;;;3.10;2.28;;;6.60;99.90;;;;;;5076429;28;20169;-69
2022/11/17 08:02:38;;;;;;;5.13;3.08;;;6.60;99.90;;;;;;5058398;28;20045;-70
2022/11/17 08:05:05;;;;;;;3.60;2.70;;;6.60;99.90;;;;;;5058437;28;20044;-69
2022/11/17 08:07:30;;;;;;;6.93;3.03;;;6.60;99.90;;;;;;5058586;28;20036;-69
2022/11/17 08:09:56;;;;;;;4.07;2.40;;;6.60;99.90;;;;;;5076494;28;20037;-69
2022/11/17 08:12:22;;;;;;;4.38;3.10;;;6.90;99.90;;;;;;5076472;28;20067;-69
2022/11/17 08:14:48;;;;;;;4.28;2.80;;;6.60;99.90;;;;;;5076121;28;20044;-69
2022/11/17 08:17:14;;;;;;;4.10;2.80;;;6.60;99.90;;;;;;5076122;28;20087;-69
2022/11/17 08:19:40;;;;;;;5.03;2.92;;;6.60;99.90;;;;;;5076042;28;20060;-69
2022/11/17 08:22:06;;;;;;;2.92;2.20;;;6.60;99.90;;;;;;5076225;28;20052;-69
2022/11/17 08:24:32;;;;;;;3.88;2.75;;;7.30;99.90;;;;;;5076323;28;20361;-69
2022/11/17 08:26:57;;;;;;;4.10;2.72;;;6.60;99.90;;;;;;5075931;28;20158;-70
2022/11/17 08:29:23;;;;;;;4.45;3.13;;;6.70;99.90;;;;;;5057966;28;20044;-69
2022/11/17 08:31:49;;;;;;;5.50;2.42;;;6.70;99.90;;;;;;5076169;28;20115;-70
2022/11/17 08:34:15;;;;;;;4.40;2.88;;;6.70;99.90;;;;;;5075886;28;20040;-69
2022/11/17 08:36:41;;;;;;;4.35;2.80;;;6.70;99.90;;;;;;5057967;28;20499;-69
2022/11/17 08:39:07;;;;;;;3.67;2.65;;;6.70;99.90;;;;;;5076162;28;20036;-69
2022/11/17 08:41:33;;;;;;;4.13;2.53;;;7.00;99.90;;;;;;5057837;28;20133;-69
2022/11/17 08:43:58;;;;;;;5.35;3.63;;;6.70;99.90;;;;;;5075687;28;20503;-69
2022/11/17 08:46:25;;;;;;;4.15;2.88;;;6.70;99.90;;;;;;5076037;28;20077;-68
2022/11/17 08:48:51;;;;;;;6.28;2.83;;;6.70;99.90;;;;;;5075876;28;20037;-69
2022/11/17 08:51:17;;;;;;;6.22;3.13;;;6.70;99.90;;;;;;5075927;28;20364;-68
2022/11/17 08:53:42;;;;;;;3.90;2.97;;;6.70;99.90;;;;;;5057155;28;20047;-69
2022/11/17 08:56:11;;;;;;;4.93;3.05;;;6.70;99.90;;;;;;5057532;28;20052;-68
2022/11/17 08:58:41;;;;;;;3.80;2.97;;;6.70;99.90;;;;;;5075520;28;20048;-68
2022/11/17 09:01:08;;;;;;;5.40;2.80;;;6.70;99.90;;;;;;5075833;28;20094;-69
2022/11/17 09:03:34;;;;;;;3.53;2.80;;;6.70;99.90;;;;;;5075427;28;20051;-69
2022/11/17 09:06:01;;;;;;;4.25;2.67;;;6.70;99.90;;;;;;5075372;28;20041;-68
2022/11/17 09:08:27;;;;;;;4.00;2.85;;;6.70;99.90;;;;;;5041153;28;20040;-69
2022/11/17 09:10:52;;;;;;;2.97;2.47;;;6.70;99.90;;;;;;5057485;28;20044;-69
2022/11/17 09:13:18;;;;;;;4.80;3.28;;;6.70;99.90;;;;;;5040644;28;20063;-69
2022/11/17 09:15:44;;;;;;;5.40;3.55;;;6.70;99.90;;;;;;5057208;28;20067;-68
2022/11/17 09:18:09;;;;;;;3.92;2.78;;;6.70;99.90;;;;;;5075175;28;20058;-68
2022/11/17 09:20:35;;;;;;;2.80;2.35;;;6.70;99.90;;;;;;5074983;28;20519;-69
2022/11/17 09:23:01;;;;;;;3.55;2.15;;;6.70;99.90;;;;;;5075246;28;20044;-69
2022/11/17 09:25:28;;;;;;;2.45;2.00;;;6.70;99.90;;;;;;5057026;28;20395;-68
2022/11/17 09:27:54;;;;;;;3.92;2.58;;;6.70;99.90;;;;;;5075193;28;20396;-69
2022/11/17 09:30:21;;;;;;;2.90;2.17;;;6.70;99.90;;;;;;5075185;28;20036;-69
2022/11/17 09:32:48;;;;;;;2.95;2.03;;;6.70;99.90;;;;;;5057255;28;20040;-69
2022/11/17 09:35:14;;;;;;;7.75;2.67;;;6.70;99.90;;;;;;5057162;28;20522;-69
2022/11/17 09:37:39;;;;;;;2.85;2.08;;;6.70;99.90;;;;;;5074961;28;20115;-68
2022/11/17 09:40:06;;;;;;;3.15;2.08;;;6.70;99.90;;;;;;5056890;28;20399;-69
2022/11/17 09:42:38;;;;;;;4.65;2.70;;;6.70;99.90;;;;;;5056661;28;20041;-69
2022/11/17 09:45:23;;;;;;;4.72;2.35;;;6.70;99.90;;;;;;5074542;28;20032;-69
2022/11/17 09:47:53;;;;;;;3.35;2.45;;;6.70;99.90;;;;;;5056664;28;20048;-70
2022/11/17 09:50:26;;;;;;;5.15;2.42;;;6.70;99.90;;;;;;5074984;28;20442;-69
2022/11/17 09:53:02;;;;;;;3.20;2.35;;;6.70;99.90;;;;;;5074605;28;20052;-69
2022/11/17 09:55:35;;;;;;;4.18;2.75;;;6.70;99.90;;;;;;5074689;28;20044;-69
2022/11/17 09:58:33;;;;;;;3.40;2.58;;;6.70;99.90;;;;;;5056448;28;20055;-69
2022/11/17 10:01:00;;;;;;;3.72;2.40;;;6.80;99.90;;;;;;5074525;28;20079;-69
2022/11/17 10:03:31;;;;;;;3.28;2.40;;;6.90;99.90;;;;;;5074130;28;20044;-69
2022/11/17 10:05:58;;;;;;;;;;;6.70;99.90;;;;;;5074269;28;20076;-69
2022/11/17 10:08:30;;;;;;;4.07;2.70;;;6.80;99.90;;;;;;5056529;28;19970;-69
2022/11/17 10:10:56;;;;;;;3.47;2.40;;;6.90;99.90;;;;;;5074051;28;20043;-69
2022/11/17 10:13:35;;;;;;;5.28;3.05;;;6.70;99.90;;;;;;5074375;28;20115;-69
2022/11/17 10:16:12;;;;;;;5.38;2.65;;;6.80;99.90;;;;;;5074194;28;20064;-69
2022/11/17 10:18:38;;;;;;;5.05;2.25;;;6.80;99.90;;;;;;5055902;28;20127;-69
2022/11/17 10:21:05;;;;;;;3.42;2.20;;;6.80;99.90;;;;;;5073685;28;20060;-70
2022/11/17 10:23:43;;;;;;;3.85;2.85;;;6.80;99.90;;;;;;5073731;28;20041;-69
2022/11/17 10:26:12;;;;;;;3.35;2.13;;;7.30;99.90;;;;;;5074033;28;20086;-69
2022/11/17 10:28:39;;;;;;;3.72;2.17;;;6.80;99.90;;;;;;5073989;28;20439;-69
2022/11/17 10:31:16;;;;;;;3.60;2.50;;;6.80;99.90;;;;;;5055882;28;20040;-70
2022/11/17 10:33:43;;;;;;;3.25;2.40;;;6.80;99.90;;;;;;5073984;28;20037;-70
2022/11/17 10:36:46;;;;;;;3.80;2.53;;;6.80;99.90;;;;;;5073522;28;20047;-69
2022/11/17 10:39:40;;;;;;;3.67;2.63;;;6.80;99.90;;;;;;5032177;28;20140;-70
2022/11/17 10:42:28;;;;;;;4.85;2.17;;;7.40;99.90;;;;;;5073367;28;20040;-70
2022/11/17 10:44:59;;;;;;;2.45;2.05;;;6.80;99.90;;;;;;5073479;28;20047;-70
2022/11/17 10:47:37;;;;;;;3.78;2.30;;;6.80;99.90;;;;;;5055568;28;20083;-70
2022/11/17 10:50:11;;;;;;;3.80;2.65;;;6.80;99.90;;;;;;5055504;28;20098;-69
2022/11/17 10:52:36;;;;;;;3.10;2.33;;;6.70;99.90;;;;;;5055475;28;20048;-70
2022/11/17 10:55:19;;;;;;;5.35;2.20;;;6.80;99.90;;;;;;5073665;28;20062;-70
2022/11/17 10:57:49;;;;;;;3.10;1.95;;;6.80;99.90;;;;;;5055507;28;20040;-70
2022/11/17 11:00:27;;;;;;;1.55;1.42;;;6.90;99.90;;;;;;5073593;28;20036;-69
2022/11/17 11:03:20;;;;;;;4.22;2.05;;;6.80;99.90;;;;;;5055284;28;20054;-73
2022/11/17 11:06:00;;;;;;;4.63;2.38;;;6.90;99.90;;;;;;5047611;28;20476;-69
2022/11/17 11:08:35;;;;;;;3.50;2.33;;;6.80;99.90;;;;;;5073244;28;20120;-69
2022/11/17 11:11:06;;;;;;;2.10;1.70;;;6.90;99.90;;;;;;5073481;28;20062;-69
2022/11/17 11:13:43;;;;;;;3.38;2.10;;;6.80;99.90;;;;;;5073161;28;20040;-70
2022/11/17 11:16:10;;;;;;;3.33;1.67;;;6.90;99.90;;;;;;5073521;28;20036;-69
2022/11/17 11:18:37;;;;;;;2.80;1.77;;;6.90;99.90;;;;;;5054652;28;20055;-69
2022/11/17 11:21:33;;;;;;;3.85;2.20;;;7.20;99.90;;;;;;5072995;28;20132;-68
2022/11/17 11:23:59;;;;;;;3.42;2.22;;;6.90;99.90;;;;;;5073146;28;20624;-69
2022/11/17 11:26:54;;;;;;;4.57;2.30;;;6.90;99.90;;;;;;5055099;28;20048;-68
2022/11/17 11:29:46;;;;;;;2.83;2.33;;;6.90;99.90;;;;;;5055436;28;20044;-68
2022/11/17 11:32:43;;;;;;;3.28;1.98;;;6.90;99.90;;;;;;5024862;28;20052;-69
2022/11/17 11:35:30;;;;;;;3.08;2.10;;;6.90;99.90;;;;;;5073266;28;20044;-69
2022/11/17 11:37:55;;;;;;;3.10;1.92;;;7.00;99.90;;;;;;5055265;28;20475;-68
2022/11/17 11:40:25;;;;;;;3.30;2.08;;;7.00;99.90;;;;;;5055032;28;20040;-68
2022/11/17 11:42:59;;;;;;;1.48;1.25;;;6.90;99.90;;;;;;5072786;28;20044;-69
2022/11/17 11:45:36;;;;;;;4.07;2.47;;;7.00;99.90;;;;;;5073202;28;20369;-68
2022/11/17 11:48:14;;;;;;;3.45;2.00;;;6.90;99.90;;;;;;5073415;28;20036;-68
2022/11/17 11:50:53;;;;;;;3.97;2.20;;;7.10;99.90;;;;;;5073097;28;20423;-68
2022/11/17 11:53:41;;;;;;;2.65;1.85;;;7.00;99.90;;;;;;5054808;28;20131;-68
2022/11/17 11:56:14;;;;;;;3.47;1.92;;;7.00;99.90;;;;;;5073045;28;20102;-69
2022/11/17 11:58:52;;;;;;;3.53;1.98;;;7.20;99.90;;;;;;5055052;28;20039;-68
2022/11/17 12:01:20;;;;;;;2.72;2.10;;;7.00;99.90;;;;;;5054792;28;20041;-68
2022/11/17 12:04:11;;;;;;;2.30;1.60;;;7.00;99.90;;;;;;5072632;28;20123;-69
2022/11/17 12:06:52;;;;;;;3.72;1.90;;;7.00;99.90;;;;;;5054897;28;20098;-69
2022/11/17 12:09:42;;;;;;;2.65;2.15;;;7.10;99.90;;;;;;5073045;28;20107;-73
2022/11/17 12:12:27;;;;;;;2.92;1.58;;;7.00;99.90;;;;;;5072477;28;20045;-69
2022/11/17 12:15:25;;;;;;;2.47;1.88;;;7.10;99.90;;;;;;5072932;28;20040;-69
2022/11/17 12:17:50;;;;;;;2.22;1.77;;;7.20;99.90;;;;;;5028240;28;20399;-69
2022/11/17 12:20:57;;;;;;;2.03;1.50;;;7.00;99.90;;;;;;5072356;28;20056;-69
2022/11/17 12:23:29;;;;;;;2.17;1.65;;;7.00;99.90;;;;;;5007657;28;20052;-68
2022/11/17 12:25:57;;;;;;;3.40;2.03;;;7.10;99.90;;;;;;5054573;28;20044;-69
2022/11/17 12:28:31;;;;;;;2.72;1.80;;;7.10;99.90;;;;;;5055526;28;20044;-69
2022/11/17 12:31:02;;;;;;;2.45;1.58;;;7.10;99.90;;;;;;5058158;28;20098;-69
2022/11/17 12:33:51;;;;;;;2.95;2.03;;;7.10;99.90;;;;;;5076083;28;20036;-69
2022/11/17 12:36:23;;;;;;;2.70;1.63;;;7.10;99.90;;;;;;5075894;28;20051;-68
2022/11/17 12:38:53;;;;;;;1.35;1.15;;;7.70;99.90;;;;;;5057985;28;20068;-69
2022/11/17 12:41:47;;;;;;;1.85;1.40;;;8.00;99.90;;;;;;5058248;28;20036;-68
2022/11/17 12:44:37;;;;;;;2.97;1.85;;;7.20;99.90;;;;;;5058386;28;20084;-69
2022/11/17 12:47:20;;;;;;;2.70;1.73;;;7.30;99.90;;;;;;5058125;28;20036;-69
2022/11/17 12:50:04;;;;;;;2.35;1.55;;;7.50;99.90;;;;;;5076029;28;20051;-69
2022/11/17 12:52:59;;;;;;;2.45;1.58;;;7.60;99.90;;;;;;5075919;28;20036;-69
2022/11/17 12:55:31;;;;;;;3.53;1.77;;;7.40;99.90;;;;;;5075839;28;20438;-70
2022/11/17 12:58:08;;;;;;;2.38;1.50;;;7.40;99.90;;;;;;5075886;28;20124;-68
2022/11/17 13:00:47;;;;;;;2.88;1.58;;;8.00;99.90;;;;;;5075687;28;20044;-69
2022/11/17 13:03:20;;;;;;;2.70;1.92;;;7.50;99.90;;;;;;5075377;28;20044;-69
2022/11/17 13:06:09;;;;;;;3.80;1.95;;;7.40;99.90;;;;;;5075459;28;20067;-70
2022/11/17 13:08:35;;;;;;;2.63;1.60;;;7.50;99.90;;;;;;5075637;28;20393;-69
2022/11/17 13:11:10;;;;;;;1.73;1.30;;;7.50;99.90;;;;;;5075581;28;20115;-70
2022/11/17 13:13:37;;;;;;;2.33;1.52;;;7.40;99.90;;;;;;5057370;28;20049;-69
2022/11/17 13:16:03;;;;;;;3.47;1.88;;;7.40;99.90;;;;;;5057254;28;20048;-70
2022/11/17 13:18:34;;;;;;;3.03;1.65;;;7.60;99.90;;;;;;5075438;28;20373;-70
2022/11/17 13:21:00;;;;;;;2.25;1.35;;;7.60;99.90;;;;;;5074957;28;20067;-69
2022/11/17 13:23:31;;;;;;;2.33;1.52;;;7.60;99.90;;;;;;5040849;28;20052;-70
2022/11/17 13:26:15;;;;;;;1.90;1.23;;;7.70;99.90;;;;;;5075037;28;20052;-70
2022/11/17 13:28:41;;;;;;;2.05;1.35;;;7.70;99.90;;;;;;5057050;28;20101;-69
2022/11/17 13:31:17;;;;;;;1.83;1.20;;;7.70;99.90;;;;;;5075258;28;20044;-69
2022/11/17 13:33:43;;;;;;;2.03;1.70;;;7.70;99.90;;;;;;5075213;28;20119;-69
2022/11/17 13:36:18;;;;;;;3.10;2.20;;;7.50;99.90;;;;;;5075141;28;20112;-69
2022/11/17 13:38:51;;;;;;;1.98;1.63;;;7.60;99.90;;;;;;5056859;28;20040;-69
2022/11/17 13:41:20;;;;;;;3.50;2.15;;;7.60;99.90;;;;;;5074367;28;20056;-70
2022/11/17 13:43:47;;;;;;;3.08;1.70;;;7.60;99.90;;;;;;5056686;28;20036;-70
2022/11/17 13:46:13;;;;;;;3.83;1.90;;;7.50;99.90;;;;;;5074882;28;20044;-69
2022/11/17 13:48:40;;;;;;;3.75;2.10;;;7.50;99.90;;;;;;5074780;28;20048;-69